Time;durP1;ratioP1;P1;durP2;ratioP2;P2;SDS_P1;SDS_P2;PMS_P1;PMS_P2;Temp;Humidity;BMP_temperature;BMP_pressure;BME280_temperature;BME280_humidity;BME280_pressure;Samples;Min_cycle;Max_cycle;Signal;HPM_P1;HPM_P2
2022/11/28 00:01:09;;;;;;;33.35;16.95;;;;;;;5.94;100.00;101393.81;5073628;28;20547;-67
2022/11/28 00:03:35;;;;;;;33.67;16.70;;;;;;;5.81;100.00;101363.41;5073104;28;20049;-67
2022/11/28 00:06:03;;;;;;;35.92;17.95;;;;;;;5.94;100.00;101380.50;5073869;28;20051;-67
2022/11/28 00:08:29;;;;;;;36.20;17.55;;;;;;;5.78;100.00;101356.47;5073119;28;20021;-67
2022/11/28 00:10:55;;;;;;;37.67;17.08;;;;;;;5.80;100.00;101354.56;5067770;28;20028;-66
2022/11/28 00:13:20;;;;;;;34.90;19.02;;;;;;;5.85;100.00;101365.00;5070007;28;20032;-66
2022/11/28 00:16:00;;;;;;;33.45;17.15;;;;;;;5.97;100.00;101383.84;5068384;28;20024;-66
2022/11/28 00:18:26;;;;;;;36.15;18.10;;;;;;;5.89;100.00;101362.09;5069858;28;20063;-66
2022/11/28 00:20:52;;;;;;;40.72;19.10;;;;;;;5.95;100.00;101363.59;5070139;28;20036;-66
2022/11/28 00:23:17;;;;;;;45.67;19.63;;;;;;;5.93;100.00;101365.50;5069711;28;20078;-67
2022/11/28 00:25:43;;;;;;;34.15;18.40;;;;;;;6.00;100.00;101381.03;5065727;28;20032;-67
2022/11/28 00:28:08;;;;;;;38.85;19.02;;;;;;;5.86;100.00;101350.75;5068634;28;20028;-66
2022/11/28 00:30:37;;;;;;;40.95;18.58;;;;;;;5.93;100.00;101366.31;5068427;28;20024;-66
2022/11/28 00:33:03;;;;;;;41.60;18.55;;;;;;;5.98;100.00;101371.41;5070194;28;20036;-66
2022/11/28 00:35:28;;;;;;;34.80;17.55;;;;;;;5.82;100.00;101336.75;5067879;28;20028;-65
2022/11/28 00:37:53;;;;;;;34.90;18.10;;;;;;;5.85;100.00;101352.56;5069877;28;20029;-66
2022/11/28 00:40:19;;;;;;;36.47;17.40;;;;;;;5.92;99.37;101364.63;5069869;28;20036;-66
2022/11/28 00:42:44;;;;;;;34.88;16.73;;;;;;;5.92;99.24;101358.41;5068480;28;20924;-67
2022/11/28 00:45:10;;;;;;;37.05;17.60;;;;;;;5.87;99.23;101357.81;5068703;28;20123;-67
2022/11/28 00:47:35;;;;;;;39.92;18.05;;;;;;;5.85;99.50;101352.56;5069593;28;20056;-67
2022/11/28 00:50:01;;;;;;;36.58;16.73;;;;;;;5.80;99.41;101338.59;5068262;28;20438;-66
2022/11/28 00:52:26;;;;;;;38.45;18.80;;;;;;;5.78;99.45;101343.16;5058870;28;20123;-66
2022/11/28 00:54:52;;;;;;;35.92;17.50;;;;;;;5.86;100.00;101364.06;5049594;28;20021;-66
2022/11/28 00:57:17;;;;;;;39.70;18.67;;;;;;;5.92;99.90;101371.72;5049519;28;20017;-65
2022/11/28 00:59:42;;;;;;;41.95;19.70;;;;;;;5.89;100.00;101374.53;5049334;28;20031;-66
2022/11/28 01:02:08;;;;;;;39.22;17.92;;;;;;;5.73;100.00;101349.63;5049699;28;20036;-66
2022/11/28 01:04:33;;;;;;;39.60;19.67;;;;;;;5.86;100.00;101367.59;5048978;28;20052;-66
2022/11/28 01:06:59;;;;;;;38.35;18.40;;;;;;;5.79;99.99;101352.84;5049366;28;20040;-67
2022/11/28 01:09:24;;;;;;;36.05;19.05;;;;;;;5.78;99.73;101355.59;5049307;28;20040;-66
2022/11/28 01:11:52;;;;;;;39.47;18.85;;;;;;;5.82;100.00;101352.72;5047615;28;20075;-66
2022/11/28 01:14:19;;;;;;;42.00;19.17;;;;;;;5.81;99.82;101356.31;5065309;28;20024;-66
2022/11/28 01:16:45;;;;;;;38.40;19.77;;;;;;;5.64;99.33;101326.16;5068872;28;20491;-66
2022/11/28 01:19:11;;;;;;;43.67;20.40;;;;;;;5.77;99.71;101353.88;5068937;28;20017;-66
2022/11/28 01:21:37;;;;;;;36.10;19.00;;;;;;;5.62;99.92;101344.88;5067159;28;20066;-66
2022/11/28 01:24:02;;;;;;;41.10;18.60;;;;;;;5.67;100.00;101355.28;5069015;28;20056;-67
2022/11/28 01:26:29;;;;;;;39.55;19.35;;;;;;;5.64;100.00;101363.44;5068386;28;20024;-67
2022/11/28 01:28:55;;;;;;;47.85;20.58;;;;;;;5.45;100.00;101336.03;5069065;28;20070;-67
2022/11/28 01:31:23;;;;;;;37.35;18.65;;;;;;;5.46;100.00;101341.28;5067330;28;20051;-67
2022/11/28 01:33:50;;;;;;;43.55;19.90;;;;;;;5.50;100.00;101356.13;5067050;28;20059;-67
2022/11/28 01:36:17;;;;;;;39.67;19.42;;;;;;;5.40;100.00;101349.56;5068712;28;20477;-66
2022/11/28 01:38:43;;;;;;;46.70;20.80;;;;;;;5.39;100.00;101355.81;5068485;28;20527;-67
2022/11/28 01:41:10;;;;;;;42.17;19.63;;;;;;;5.35;100.00;101364.88;5069104;28;20117;-66
2022/11/28 01:43:36;;;;;;;44.00;19.52;;;;;;;5.17;100.00;101349.84;5067969;28;20048;-66
2022/11/28 01:46:03;;;;;;;45.05;20.77;;;;;;;5.14;100.00;101352.66;5068580;28;20602;-66
2022/11/28 01:48:40;;;;;;;42.50;19.67;;;;;;;5.08;100.00;101352.06;5067922;28;20092;-66
2022/11/28 01:51:09;;;;;;;41.85;18.45;;;;;;;4.98;100.00;101346.34;5067167;28;20412;-66
2022/11/28 01:53:39;;;;;;;39.75;18.63;;;;;;;4.89;100.00;101346.78;5067921;28;20028;-66
2022/11/28 01:56:15;;;;;;;39.80;18.92;;;;;;;4.80;100.00;101346.38;5067488;28;20063;-72
2022/11/28 01:58:48;;;;;;;41.83;18.63;;;;;;;4.60;100.00;101334.03;5067695;28;20115;-72
2022/11/28 02:01:15;;;;;;;41.38;19.35;;;;;;;4.57;100.00;101344.81;5067407;28;20033;-71
2022/11/28 02:03:46;;;;;;;41.15;20.00;;;;;;;4.46;100.00;101342.63;5067830;28;20063;-72
2022/11/28 02:06:15;;;;;;;39.97;19.38;;;;;;;4.33;100.00;101333.50;5068029;28;20059;-72
2022/11/28 02:08:41;;;;;;;38.17;19.00;;;;;;;4.28;100.00;101342.63;5067471;28;20053;-72
2022/11/28 02:11:18;;;;;;;41.45;18.55;;;;;;;4.12;100.00;101333.63;5067693;28;20028;-72
2022/11/28 02:13:58;;;;;;;45.55;20.42;;;;;;;4.08;100.00;101345.34;5066568;28;20582;-72
2022/11/28 02:16:47;;;;;;;40.28;18.85;;;;;;;3.99;100.00;101354.56;5067315;28;20032;-72
2022/11/28 02:19:38;;;;;;;42.00;18.50;;;;;;;3.90;100.00;101354.97;5065851;28;20651;-72
2022/11/28 02:22:22;;;;;;;39.50;18.23;;;;;;;3.82;100.00;101348.28;5067048;28;20084;-73
2022/11/28 02:25:01;;;;;;;;;;;;;;;3.74;100.00;101340.66;5067520;28;20445;-72
2022/11/28 02:27:51;;;;;;;38.05;16.13;;;;;;;3.71;100.00;101340.78;5067312;28;19931;-72
2022/11/28 02:30:44;;;;;;;43.75;19.15;;;;;;;3.67;100.00;101322.41;5067075;28;20032;-72
2022/11/28 02:33:33;;;;;;;40.83;17.38;;;;;;;3.65;100.00;101330.44;5066835;28;20066;-71
2022/11/28 02:36:24;;;;;;;38.85;16.48;;;;;;;3.60;100.00;101327.13;5066875;28;20407;-71
2022/11/28 02:39:12;;;;;;;41.28;18.60;;;;;;;3.62;100.00;101327.06;5066504;28;20032;-66
2022/11/28 02:41:43;;;;;;;40.42;19.58;;;;;;;3.62;100.00;101313.81;5065944;28;20029;-65
2022/11/28 02:44:24;;;;;;;42.10;19.10;;;;;;;3.51;100.00;101289.56;5068384;28;20064;-65
2022/11/28 02:47:12;;;;;;;39.92;18.92;;;;;;;3.60;100.00;101310.34;5065568;28;20051;-65
2022/11/28 02:49:49;;;;;;;40.58;19.00;;;;;;;3.60;100.00;101311.22;5067117;28;20033;-65
2022/11/28 02:52:21;;;;;;;47.25;20.38;;;;;;;3.63;100.00;101307.56;5066759;28;20044;-65
2022/11/28 02:54:48;;;;;;;45.50;20.23;;;;;;;3.49;100.00;101286.09;5066965;28;20488;-65
2022/11/28 02:57:14;;;;;;;47.90;22.00;;;;;;;3.63;100.00;101294.31;5066208;28;20067;-66
2022/11/28 02:59:39;;;;;;;53.35;21.70;;;;;;;3.76;100.00;101314.06;5066315;28;20109;-65
2022/11/28 03:02:20;;;;;;;47.30;22.08;;;;;;;3.79;100.00;101300.66;5061151;28;20318;-65
2022/11/28 03:05:06;;;;;;;42.97;21.08;;;;;;;3.77;100.00;101297.22;5044724;28;20123;-66
2022/11/28 03:07:31;;;;;;;48.05;21.42;;;;;;;3.83;100.00;101304.88;5066010;28;20039;-65
2022/11/28 03:10:27;;;;;;;49.80;22.77;;;;;;;3.87;100.00;101303.84;5067321;28;20024;-65
2022/11/28 03:13:14;;;;;;;45.67;21.98;;;;;;;3.90;100.00;101303.72;5065325;28;20514;-65
2022/11/28 03:16:13;;;;;;;46.40;20.50;;;;;;;3.91;100.00;101301.00;5067118;28;20086;-65
2022/11/28 03:18:53;;;;;;;45.60;20.50;;;;;;;3.83;100.00;101286.31;5066992;28;20471;-66
2022/11/28 03:21:49;;;;;;;43.65;20.77;;;;;;;3.92;100.00;101304.50;5067267;28;20488;-65
2022/11/28 03:24:23;;;;;;;45.92;19.58;;;;;;;3.91;100.00;101295.69;5066457;28;20472;-66
2022/11/28 03:27:19;;;;;;;46.28;21.85;;;;;;;3.87;100.00;101295.88;5065635;28;20051;-72
2022/11/28 03:29:51;;;;;;;47.35;22.05;;;;;;;3.98;100.00;101294.47;5060071;28;20036;-72
2022/11/28 03:32:28;;;;;;;45.25;21.33;;;;;;;3.99;100.00;101300.63;5067199;28;20052;-72
2022/11/28 03:34:59;;;;;;;49.28;22.33;;;;;;;3.93;100.00;101285.84;5067554;28;20085;-72
2022/11/28 03:37:39;;;;;;;46.60;21.80;;;;;;;4.01;100.00;101294.34;5067660;28;20016;-72
2022/11/28 03:40:11;;;;;;;46.88;20.67;;;;;;;4.03;100.00;101291.63;5067749;28;20111;-72
2022/11/28 03:42:41;;;;;;;45.40;21.90;;;;;;;4.02;100.00;101282.78;5065649;28;20137;-72
2022/11/28 03:45:33;;;;;;;52.65;22.63;;;;;;;4.04;100.00;101285.38;5069380;28;20423;-72
2022/11/28 03:48:08;;;;;;;51.10;23.20;;;;;;;4.08;100.00;101285.16;5071156;28;20040;-72
2022/11/28 03:50:44;;;;;;;52.85;22.70;;;;;;;4.10;100.00;101285.09;5071078;28;20028;-72
2022/11/28 03:53:19;;;;;;;41.83;20.40;;;;;;;4.12;100.00;101278.75;5056321;28;20147;-71
2022/11/28 03:55:52;;;;;;;49.45;22.65;;;;;;;4.09;100.00;101267.41;5050895;28;20460;-71
2022/11/28 03:58:27;;;;;;;57.88;26.27;;;;;;;4.20;100.00;101275.75;5051563;28;20468;-72
2022/11/28 04:01:12;;;;;;;54.33;25.50;;;;;;;4.22;100.00;101272.09;5051053;28;20616;-72
2022/11/28 04:03:57;;;;;;;51.25;24.00;;;;;;;4.18;100.00;101261.69;5050880;28;20024;-71
2022/11/28 04:06:36;;;;;;;52.63;24.67;;;;;;;4.21;100.00;101261.53;5049826;28;20469;-71
2022/11/28 04:09:16;;;;;;;54.75;26.48;;;;;;;4.20;100.00;101252.72;5051418;28;20083;-71
2022/11/28 04:11:58;;;;;;;55.67;24.90;;;;;;;4.25;100.00;101266.66;5051631;28;20037;-71
2022/11/28 04:14:33;;;;;;;53.30;26.60;;;;;;;4.25;100.00;101271.97;5049566;28;20013;-72
2022/11/28 04:17:40;;;;;;;53.53;24.05;;;;;;;4.27;100.00;101266.56;5049329;28;20107;-72
2022/11/28 04:20:23;;;;;;;56.42;26.75;;;;;;;4.30;100.00;101267.31;5050147;28;20498;-71
2022/11/28 04:22:56;;;;;;;51.88;24.10;;;;;;;4.31;100.00;101262.84;5065136;28;20387;-72
2022/11/28 04:25:24;;;;;;;51.57;24.53;;;;;;;4.36;100.00;101258.19;5069765;28;20442;-72
2022/11/28 04:27:56;;;;;;;49.53;25.65;;;;;;;4.34;100.00;101252.06;5069538;28;20056;-72
2022/11/28 04:30:21;;;;;;;55.75;25.83;;;;;;;4.36;100.00;101239.59;5069481;28;20030;-72
2022/11/28 04:32:50;;;;;;;50.30;23.75;;;;;;;4.44;100.00;101251.56;5069434;28;20476;-73
2022/11/28 04:35:24;;;;;;;56.03;26.20;;;;;;;4.46;100.00;101257.66;5068397;28;20136;-73
2022/11/28 04:37:52;;;;;;;54.22;26.02;;;;;;;4.49;100.00;101254.84;5069373;28;20032;-73
2022/11/28 04:40:21;;;;;;;51.83;26.35;;;;;;;4.55;100.00;101256.38;5069370;28;20059;-73
2022/11/28 04:42:55;;;;;;;49.17;26.08;;;;;;;4.59;100.00;101253.47;5069068;28;20044;-71
2022/11/28 04:45:32;;;;;;;50.72;26.23;;;;;;;4.61;100.00;101253.41;5069254;28;20067;-71
2022/11/28 04:47:58;;;;;;;51.83;25.27;;;;;;;4.64;100.00;101256.78;5068762;28;20072;-71
2022/11/28 04:50:30;;;;;;;51.38;25.70;;;;;;;4.68;100.00;101245.06;5069116;28;20048;-71
2022/11/28 04:53:05;;;;;;;53.63;26.60;;;;;;;4.69;100.00;101238.81;5067549;28;20581;-71
2022/11/28 04:55:42;;;;;;;56.60;28.42;;;;;;;4.73;100.00;101234.19;5068020;28;20025;-72
2022/11/28 04:58:17;;;;;;;54.47;27.63;;;;;;;4.73;100.00;101232.41;5068848;28;20074;-71
2022/11/28 05:00:44;;;;;;;56.17;27.90;;;;;;;4.75;100.00;101227.03;5068928;28;20032;-71
2022/11/28 05:03:10;;;;;;;60.13;30.30;;;;;;;4.78;100.00;101229.53;5068434;28;20036;-71
2022/11/28 05:05:48;;;;;;;56.22;28.30;;;;;;;4.87;100.00;101221.09;5068249;28;20028;-71
2022/11/28 05:08:14;;;;;;;50.60;26.20;;;;;;;4.85;100.00;101222.97;5068607;28;20818;-70
2022/11/28 05:10:40;;;;;;;54.00;26.02;;;;;;;4.81;100.00;101210.78;5067254;28;20020;-72
2022/11/28 05:13:06;;;;;;;51.92;27.23;;;;;;;4.87;100.00;101221.09;5068806;28;20048;-72
2022/11/28 05:15:32;;;;;;;57.97;28.77;;;;;;;4.82;100.00;101201.88;5068223;28;20048;-66
2022/11/28 05:17:57;;;;;;;59.78;30.73;;;;;;;4.89;100.00;101219.22;5068452;28;20032;-67
2022/11/28 05:20:23;;;;;;;58.70;29.05;;;;;;;4.90;100.00;101220.94;5065565;28;20028;-67
2022/11/28 05:22:48;;;;;;;56.13;29.60;;;;;;;4.84;100.00;101215.94;5067500;28;20054;-66
2022/11/28 05:25:14;;;;;;;65.80;30.25;;;;;;;4.83;100.00;101200.06;5068106;28;20020;-66
2022/11/28 05:27:39;;;;;;;55.80;29.10;;;;;;;4.85;100.00;101206.16;5067854;28;20047;-67
2022/11/28 05:30:06;;;;;;;57.55;28.77;;;;;;;4.92;100.00;101211.09;5068146;28;20032;-66
2022/11/28 05:32:31;;;;;;;53.72;26.85;;;;;;;4.92;100.00;101199.59;5067608;28;20032;-67
2022/11/28 05:34:57;;;;;;;52.50;27.73;;;;;;;4.88;100.00;101190.06;5054443;28;20036;-65
2022/11/28 05:37:24;;;;;;;63.03;28.15;;;;;;;5.03;100.00;101207.91;5046831;28;20053;-65
2022/11/28 05:39:49;;;;;;;57.33;28.40;;;;;;;4.96;100.00;101194.03;5046528;28;20028;-65
2022/11/28 05:42:15;;;;;;;55.30;27.48;;;;;;;5.04;100.00;101213.13;5048047;28;20082;-67
2022/11/28 05:44:40;;;;;;;51.20;27.35;;;;;;;5.06;100.00;101223.69;5047726;28;20055;-65
2022/11/28 05:47:06;;;;;;;53.72;26.83;;;;;;;5.05;100.00;101214.84;5047808;28;20103;-70
2022/11/28 05:49:31;;;;;;;53.75;28.02;;;;;;;4.97;100.00;101192.25;5051123;28;20040;-71
2022/11/28 05:51:57;;;;;;;53.03;26.15;;;;;;;5.11;100.00;101217.19;5065884;28;20086;-71
2022/11/28 05:54:22;;;;;;;61.08;29.20;;;;;;;5.08;100.00;101203.19;5067647;28;20016;-71
2022/11/28 05:56:47;;;;;;;55.25;28.52;;;;;;;5.07;100.00;101199.69;5066402;28;20426;-71
2022/11/28 05:59:13;;;;;;;59.85;29.25;;;;;;;5.07;100.00;101205.00;5053723;28;20048;-72
2022/11/28 06:01:39;;;;;;;61.08;28.13;;;;;;;5.07;100.00;101197.03;5046307;28;20024;-71
2022/11/28 06:04:04;;;;;;;60.13;30.40;;;;;;;5.11;100.00;101211.00;5047594;28;20021;-71
2022/11/28 06:06:32;;;;;;;67.85;32.03;;;;;;;5.11;100.00;101208.34;5047540;28;20049;-71
2022/11/28 06:08:59;;;;;;;68.82;31.40;;;;;;;5.12;100.00;101210.94;5046659;28;20021;-72
2022/11/28 06:11:26;;;;;;;56.95;29.13;;;;;;;4.91;100.00;101173.97;5047599;28;20051;-66
2022/11/28 06:13:52;;;;;;;66.13;32.08;;;;;;;5.08;100.00;101193.44;5047790;28;20033;-66
2022/11/28 06:16:20;;;;;;;66.88;33.25;;;;;;;5.13;100.00;101209.16;5067444;28;20106;-65
2022/11/28 06:18:46;;;;;;;68.97;32.17;;;;;;;5.10;100.00;101203.97;5066825;28;20037;-66
2022/11/28 06:21:13;;;;;;;60.35;30.27;;;;;;;5.16;100.00;101212.50;5065775;28;20033;-66
2022/11/28 06:23:38;;;;;;;60.33;29.50;;;;;;;5.14;100.00;101214.38;5066549;28;20024;-66
2022/11/28 06:26:10;;;;;;;72.50;33.65;;;;;;;5.19;100.00;101217.66;5067340;28;20039;-66
2022/11/28 06:28:36;;;;;;;72.55;33.45;;;;;;;5.18;100.00;101231.91;5066856;28;20081;-66
2022/11/28 06:31:02;;;;;;;69.80;32.20;;;;;;;5.12;100.00;101218.91;5067339;28;20032;-67
2022/11/28 06:33:28;;;;;;;65.15;29.63;;;;;;;5.05;100.00;101211.31;5066577;28;20024;-66
2022/11/28 06:36:00;;;;;;;72.68;33.45;;;;;;;5.21;100.00;101239.72;5066389;28;20079;-67
2022/11/28 06:38:27;;;;;;;69.78;33.55;;;;;;;5.17;100.00;101237.28;5067064;28;20028;-67
2022/11/28 06:40:56;;;;;;;69.53;32.80;;;;;;;5.17;100.00;101238.16;5065748;28;20021;-66
2022/11/28 06:43:21;;;;;;;69.45;32.97;;;;;;;5.22;100.00;101245.91;5066892;28;20028;-66
2022/11/28 06:45:47;;;;;;;64.93;31.15;;;;;;;5.16;100.00;101239.06;5066689;28;20039;-67
2022/11/28 06:48:12;;;;;;;67.53;30.95;;;;;;;5.22;100.00;101249.41;5066726;28;20153;-67
2022/11/28 06:50:38;;;;;;;65.00;31.15;;;;;;;5.14;100.00;101243.63;5064927;28;20032;-67
2022/11/28 06:53:03;;;;;;;72.97;33.45;;;;;;;5.18;100.00;101254.97;5064783;28;20074;-66
2022/11/28 06:55:29;;;;;;;74.32;33.10;;;;;;;5.14;100.00;101245.41;5064899;28;20017;-67
2022/11/28 06:57:54;;;;;;;75.50;34.65;;;;;;;5.14;100.00;101230.34;5064562;28;20063;-65
2022/11/28 07:00:20;;;;;;;68.75;32.95;;;;;;;5.08;100.00;101229.78;5065346;28;20476;-66
2022/11/28 07:02:45;;;;;;;69.28;32.67;;;;;;;5.21;100.00;101258.34;5054398;28;20028;-67
2022/11/28 07:05:11;;;;;;;68.95;32.42;;;;;;;5.08;100.00;101238.63;5050467;28;20037;-67
2022/11/28 07:07:36;;;;;;;72.30;32.67;;;;;;;5.14;100.00;101258.72;5051391;28;20031;-66
2022/11/28 07:10:02;;;;;;;68.38;33.33;;;;;;;4.97;100.00;101221.50;5044083;28;20024;-66
2022/11/28 07:12:27;;;;;;;73.60;34.28;;;;;;;5.12;100.00;101253.47;5045617;28;20468;-66
2022/11/28 07:14:53;;;;;;;66.85;34.80;;;;;;;5.11;100.00;101250.91;5053634;28;20040;-66
2022/11/28 07:17:18;;;;;;;72.68;32.13;;;;;;;5.21;100.00;101268.09;5064363;28;20067;-66
2022/11/28 07:19:44;;;;;;;66.68;32.78;;;;;;;5.25;100.00;101267.03;5066433;28;20028;-66
2022/11/28 07:22:12;;;;;;;71.57;34.60;;;;;;;5.19;100.00;101259.34;5069223;28;20165;-66
2022/11/28 07:24:38;;;;;;;68.85;34.08;;;;;;;5.23;100.00;101269.75;5067320;28;20047;-67
2022/11/28 07:27:03;;;;;;;64.18;32.15;;;;;;;5.19;100.00;101254.03;5069464;28;20048;-67
2022/11/28 07:29:34;;;;;;;71.53;32.25;;;;;;;5.16;100.00;101254.19;5067785;28;20442;-67
2022/11/28 07:32:01;;;;;;;68.45;31.27;;;;;;;5.14;100.00;101240.97;5069529;28;20437;-66
2022/11/28 07:34:27;;;;;;;71.07;31.63;;;;;;;5.25;100.00;101259.88;5066394;28;20095;-72
2022/11/28 07:36:52;;;;;;;64.47;31.77;;;;;;;5.20;99.80;101251.31;5069102;28;20112;-72
2022/11/28 07:39:17;;;;;;;72.72;34.63;;;;;;;5.20;99.98;101250.44;5068388;28;20433;-72
2022/11/28 07:41:43;;;;;;;67.10;30.67;;;;;;;5.29;99.65;101264.09;5069251;28;20034;-72
2022/11/28 07:44:10;;;;;;;66.32;31.70;;;;;;;5.31;98.82;101262.25;5069021;28;20058;-71
2022/11/28 07:46:35;;;;;;;70.13;30.20;;;;;;;5.33;98.53;101263.03;5068839;28;20020;-72
2022/11/28 07:49:01;;;;;;;64.50;31.35;;;;;;;5.30;98.33;101262.31;5067462;28;20496;-72
2022/11/28 07:51:30;;;;;;;62.10;30.55;;;;;;;5.30;98.62;101257.88;5067729;28;20051;-66
2022/11/28 07:53:56;;;;;;;61.00;30.55;;;;;;;5.27;98.95;101242.06;5068671;28;20020;-67
2022/11/28 07:56:25;;;;;;;69.82;31.45;;;;;;;5.27;99.34;101239.41;5067593;28;20033;-67
2022/11/28 07:58:51;;;;;;;70.07;33.22;;;;;;;5.27;99.59;101236.75;5068704;28;20021;-67
2022/11/28 08:01:23;;;;;;;73.93;32.88;;;;;;;5.35;99.05;101239.84;5067414;28;20499;-67
2022/11/28 08:03:49;;;;;;;72.25;33.72;;;;;;;5.40;99.92;101255.59;5068201;28;20407;-67
2022/11/28 08:06:16;;;;;;;71.78;33.38;;;;;;;5.38;99.76;101255.66;5068464;28;20464;-67
2022/11/28 08:08:42;;;;;;;73.18;34.45;;;;;;;5.33;99.52;101231.13;5068508;28;20075;-66
2022/11/28 08:11:08;;;;;;;64.28;30.58;;;;;;;5.46;99.31;101247.28;5067378;28;20062;-67
2022/11/28 08:13:36;;;;;;;73.25;33.75;;;;;;;5.47;99.20;101251.66;5068056;28;20036;-66
2022/11/28 08:16:07;;;;;;;69.63;31.60;;;;;;;5.41;99.42;101244.88;5068296;28;20024;-67
2022/11/28 08:18:34;;;;;;;75.85;34.55;;;;;;;5.47;99.47;101257.84;5066629;28;20024;-66
2022/11/28 08:21:08;;;;;;;71.63;34.70;;;;;;;5.48;99.47;101259.56;5068585;28;20086;-67
2022/11/28 08:23:34;;;;;;;69.53;32.38;;;;;;;5.46;99.58;101248.16;5068264;28;20029;-67
2022/11/28 08:26:06;;;;;;;71.45;33.65;;;;;;;5.46;99.97;101237.53;5067656;28;20020;-67
2022/11/28 08:28:31;;;;;;;75.82;34.35;;;;;;;5.53;99.45;101257.53;5049191;28;20053;-72
2022/11/28 08:31:00;;;;;;;69.90;34.00;;;;;;;5.56;100.00;101256.50;5048309;28;20099;-72
2022/11/28 08:33:25;;;;;;;71.68;35.20;;;;;;;5.58;99.88;101252.81;5049850;28;20413;-72
2022/11/28 08:35:51;;;;;;;70.85;32.85;;;;;;;5.59;100.00;101254.56;5049701;28;20067;-72
2022/11/28 08:38:17;;;;;;;69.93;32.20;;;;;;;5.62;100.00;101254.41;5050056;28;20033;-72
2022/11/28 08:40:43;;;;;;;66.00;31.65;;;;;;;5.60;99.44;101245.63;5049538;28;20024;-72
2022/11/28 08:43:08;;;;;;;73.30;32.28;;;;;;;5.60;98.70;101245.63;5061761;28;20037;-73
2022/11/28 08:45:37;;;;;;;69.90;32.45;;;;;;;5.61;98.99;101246.50;5068112;28;20028;-72
2022/11/28 08:48:04;;;;;;;68.05;32.08;;;;;;;5.62;98.56;101237.56;5068847;28;20047;-72
2022/11/28 08:50:29;;;;;;;67.97;32.40;;;;;;;5.65;98.80;101243.59;5070048;28;20036;-72
2022/11/28 08:52:55;;;;;;;69.07;34.00;;;;;;;5.69;98.55;101260.25;5069740;28;20024;-72
2022/11/28 08:55:20;;;;;;;72.10;33.58;;;;;;;5.68;98.79;101262.03;5062472;28;20024;-72
2022/11/28 08:57:46;;;;;;;73.93;34.53;;;;;;;5.70;98.72;101249.53;5051235;28;20045;-72
2022/11/28 09:00:12;;;;;;;77.63;34.97;;;;;;;5.76;98.44;101251.00;5051578;28;20067;-70
2022/11/28 09:02:38;;;;;;;73.18;35.22;;;;;;;5.76;98.90;101249.19;5062296;28;20021;-71
2022/11/28 09:05:04;;;;;;;74.90;34.47;;;;;;;5.78;99.06;101246.47;5058530;28;20029;-71
2022/11/28 09:07:29;;;;;;;68.38;34.00;;;;;;;5.75;98.76;101242.16;5067579;28;20377;-71
2022/11/28 09:09:55;;;;;;;73.32;34.38;;;;;;;5.80;99.03;101242.75;5068935;28;20043;-71
2022/11/28 09:12:21;;;;;;;75.25;35.50;;;;;;;5.84;98.69;101244.34;5052778;28;20032;-71
2022/11/28 09:14:46;;;;;;;75.55;35.10;;;;;;;5.74;98.74;101224.47;5068143;28;20029;-71
2022/11/28 09:17:12;;;;;;;74.88;34.50;;;;;;;5.91;98.61;101237.78;5067910;28;20488;-71
2022/11/28 09:19:37;;;;;;;72.38;33.72;;;;;;;5.91;98.32;101228.91;5068979;28;20028;-72
2022/11/28 09:22:03;;;;;;;97.82;46.25;;;;;;;5.91;98.25;101227.13;5068102;28;20119;-71
2022/11/28 09:24:28;;;;;;;79.43;38.75;;;;;;;5.94;99.05;101228.75;5064836;28;20087;-71
2022/11/28 09:26:54;;;;;;;85.90;41.80;;;;;;;5.95;98.77;101222.47;5049155;28;20027;-71
2022/11/28 09:29:19;;;;;;;75.63;38.35;;;;;;;5.97;98.93;101218.78;5049812;28;20110;-71
2022/11/28 09:31:45;;;;;;;76.63;37.80;;;;;;;6.03;99.25;101223.78;5047311;28;20032;-71
2022/11/28 09:34:10;;;;;;;72.63;32.75;;;;;;;6.02;98.49;101211.41;5049346;28;20033;-71
2022/11/28 09:36:35;;;;;;;67.10;31.15;;;;;;;6.09;98.57;101218.13;5063300;28;20033;-71
2022/11/28 09:39:02;;;;;;;66.32;30.50;;;;;;;6.08;97.37;101221.72;5060485;28;20023;-71
2022/11/28 09:41:27;;;;;;;61.13;28.35;;;;;;;6.10;96.98;101219.81;5056337;28;20029;-71
2022/11/28 09:43:56;;;;;;;67.47;28.30;;;;;;;6.11;96.07;101210.91;5055191;28;20032;-72
2022/11/28 09:46:31;;;;;;;61.10;29.83;;;;;;;6.13;95.80;101214.31;5049349;28;20507;-71
2022/11/28 09:48:59;;;;;;;;;;;;;;;6.14;95.86;101202.75;5057013;28;20098;-71
2022/11/28 09:51:47;;;;;;;68.18;31.92;;;;;;;6.12;96.51;101198.44;5056757;28;20272;-71
2022/11/28 09:54:31;;;;;;;79.22;35.28;;;;;;;6.13;97.06;101201.00;5067670;28;20020;-72
2022/11/28 09:56:58;;;;;;;97.28;44.88;;;;;;;6.00;97.52;101186.66;5055080;28;20326;-71
2022/11/28 09:59:29;;;;;;;85.75;37.75;;;;;;;6.00;98.10;101180.50;5056309;28;20029;-71
2022/11/28 10:02:16;;;;;;;81.78;36.10;;;;;;;6.03;98.25;101185.66;5047061;28;20463;-71
2022/11/28 10:05:12;;;;;;;80.07;36.10;;;;;;;6.06;98.33;101181.00;5046748;28;20115;-71
2022/11/28 10:08:01;;;;;;;70.50;32.90;;;;;;;6.01;98.98;101180.41;5048291;28;20021;-71
2022/11/28 10:11:03;;;;;;;75.63;32.70;;;;;;;6.06;99.22;101182.81;5046881;28;20043;-72
2022/11/28 10:13:46;;;;;;;72.18;31.55;;;;;;;6.07;98.83;101187.19;5046733;28;20678;-71
2022/11/28 10:16:21;;;;;;;69.18;31.20;;;;;;;6.05;98.47;101176.63;5048049;28;20060;-71
2022/11/28 10:18:51;;;;;;;75.40;32.30;;;;;;;6.05;98.42;101173.97;5054528;28;20145;-72
2022/11/28 10:21:25;;;;;;;67.63;30.80;;;;;;;6.14;98.35;101167.25;5068049;28;20032;-72
2022/11/28 10:23:56;;;;;;;73.35;31.65;;;;;;;6.14;98.08;101167.25;5052645;28;20525;-71
2022/11/28 10:26:35;;;;;;;69.88;31.00;;;;;;;6.12;97.63;101166.47;5051873;28;20024;-71
2022/11/28 10:29:10;;;;;;;66.80;30.00;;;;;;;6.19;96.64;101165.22;5057844;28;20079;-71
2022/11/28 10:31:40;;;;;;;64.43;29.80;;;;;;;6.20;96.88;101166.91;5061214;28;20426;-72
2022/11/28 10:34:30;;;;;;;65.88;28.58;;;;;;;6.25;97.10;101172.81;5051774;28;20476;-71
2022/11/28 10:37:23;;;;;;;67.95;30.30;;;;;;;6.23;95.28;101158.75;5067834;28;20093;-71
2022/11/28 10:39:50;;;;;;;60.60;28.52;;;;;;;6.28;95.77;101160.22;5053671;28;20047;-72
2022/11/28 10:42:48;;;;;;;69.40;28.10;;;;;;;6.37;94.86;101158.81;5065118;28;20417;-71
2022/11/28 10:45:23;;;;;;;65.72;28.73;;;;;;;6.30;95.01;101153.00;5047860;28;20043;-71
2022/11/28 10:47:57;;;;;;;63.65;27.92;;;;;;;6.35;95.57;101161.56;5063014;28;20070;-72
2022/11/28 10:50:44;;;;;;;63.05;28.65;;;;;;;6.40;94.99;101158.66;5046524;28;20029;-72
2022/11/28 10:53:36;;;;;;;63.38;28.45;;;;;;;6.21;94.20;101115.38;5046146;28;20056;-72
2022/11/28 10:56:09;;;;;;;64.88;29.90;;;;;;;6.48;94.63;101148.44;5021793;28;20033;-72
2022/11/28 10:58:46;;;;;;;64.93;29.52;;;;;;;6.53;93.86;101138.34;5048623;28;20036;-72
2022/11/28 11:01:12;;;;;;;70.70;29.00;;;;;;;6.52;93.79;101134.81;5047415;28;20103;-72
2022/11/28 11:03:39;;;;;;;61.67;28.95;;;;;;;6.59;92.59;101144.19;5059471;28;20035;-73
2022/11/28 11:06:05;;;;;;;67.20;29.50;;;;;;;6.57;92.37;101131.88;5066772;28;20081;-72
2022/11/28 11:08:36;;;;;;;62.67;28.30;;;;;;;6.64;91.42;101139.44;5067300;28;20472;-72
2022/11/28 11:11:07;;;;;;;59.58;28.38;;;;;;;6.59;91.52;101128.19;5058486;28;20032;-72
2022/11/28 11:13:52;;;;;;;51.50;26.50;;;;;;;6.69;90.09;101137.38;5060480;28;20017;-72
2022/11/28 11:16:17;;;;;;;57.10;27.05;;;;;;;6.76;90.47;101130.72;5061024;28;20017;-72
2022/11/28 11:18:43;;;;;;;55.17;27.15;;;;;;;6.79;88.96;101124.34;5045518;28;20049;-72
2022/11/28 11:21:14;;;;;;;53.20;26.13;;;;;;;6.80;88.50;101120.72;5056009;28;20024;-72
2022/11/28 11:23:39;;;;;;;53.53;27.35;;;;;;;6.76;87.89;101111.19;5052800;28;20116;-72
2022/11/28 11:26:10;;;;;;;57.85;28.02;;;;;;;6.83;88.97;101125.88;5045644;28;20131;-72
2022/11/28 11:28:41;;;;;;;56.78;27.85;;;;;;;6.83;88.84;101121.41;5045635;28;20112;-73